sensor_id;sensor_type;location;lat;lon;timestamp;pressure;altitude;pressure_sealevel;temperature;humidity
49065;BME280;34877;27.062;-82.386;2023-04-29T00:09:02;101113.85;;;14.79;94.65
49065;BME280;34877;27.062;-82.386;2023-04-29T00:19:07;101125.87;;;15.17;91.28
49065;BME280;34877;27.062;-82.386;2023-04-29T00:29:12;101148.56;;;14.27;88.18
49065;BME280;34877;27.062;-82.386;2023-04-29T00:39:22;101199.47;;;14.28;86.26
49065;BME280;34877;27.062;-82.386;2023-04-29T00:49:27;101219.26;;;13.57;85.05
49065;BME280;34877;27.062;-82.386;2023-04-29T00:59:32;101250.64;;;15.03;76.19
49065;BME280;34877;27.062;-82.386;2023-04-29T01:09:52;101237.93;;;15.36;71.47
49065;BME280;34877;27.062;-82.386;2023-04-29T01:19:59;101250.46;;;15.30;72.84
49065;BME280;34877;27.062;-82.386;2023-04-29T01:30:09;101265.81;;;15.43;69.02
49065;BME280;34877;27.062;-82.386;2023-04-29T01:40:16;101286.44;;;15.03;67.35
49065;BME280;34877;27.062;-82.386;2023-04-29T01:50:22;101290.71;;;14.55;67.55
49065;BME280;34877;27.062;-82.386;2023-04-29T02:00:28;101296.34;;;15.05;67.81
49065;BME280;34877;27.062;-82.386;2023-04-29T02:10:32;101297.20;;;15.93;64.41
49065;BME280;34877;27.062;-82.386;2023-04-29T02:20:36;101307.44;;;15.08;64.07
49065;BME280;34877;27.062;-82.386;2023-04-29T02:30:43;101309.54;;;15.46;64.40
49065;BME280;34877;27.062;-82.386;2023-04-29T02:40:47;101301.02;;;15.42;65.69
49065;BME280;34877;27.062;-82.386;2023-04-29T02:50:53;101322.62;;;15.64;66.65
49065;BME280;34877;27.062;-82.386;2023-04-29T03:00:57;101351.17;;;15.21;65.37
49065;BME280;34877;27.062;-82.386;2023-04-29T03:11:02;101360.20;;;16.21;66.58
49065;BME280;34877;27.062;-82.386;2023-04-29T03:21:07;101376.40;;;15.27;67.23
49065;BME280;34877;27.062;-82.386;2023-04-29T03:31:12;101382.31;;;15.78;67.18
49065;BME280;34877;27.062;-82.386;2023-04-29T03:41:16;101378.67;;;15.72;77.42
49065;BME280;34877;27.062;-82.386;2023-04-29T03:51:23;101374.26;;;15.21;74.51
49065;BME280;34877;27.062;-82.386;2023-04-29T04:01:28;101390.77;;;16.22;72.03
49065;BME280;34877;27.062;-82.386;2023-04-29T04:11:31;101385.89;;;14.55;73.30
49065;BME280;34877;27.062;-82.386;2023-04-29T04:21:37;101370.73;;;15.59;71.21
49065;BME280;34877;27.062;-82.386;2023-04-29T04:31:43;101355.81;;;15.08;72.12
49065;BME280;34877;27.062;-82.386;2023-04-29T04:41:47;101337.61;;;15.61;71.10
49065;BME280;34877;27.062;-82.386;2023-04-29T04:51:53;101333.76;;;14.97;72.42
49065;BME280;34877;27.062;-82.386;2023-04-29T05:01:57;101331.01;;;15.31;71.42
49065;BME280;34877;27.062;-82.386;2023-04-29T05:12:02;101327.43;;;15.74;71.89
49065;BME280;34877;27.062;-82.386;2023-04-29T05:22:07;101311.39;;;15.30;72.62
49065;BME280;34877;27.062;-82.386;2023-04-29T05:32:12;101313.11;;;15.60;70.81
49065;BME280;34877;27.062;-82.386;2023-04-29T05:42:18;101289.65;;;15.67;73.20
49065;BME280;34877;27.062;-82.386;2023-04-29T05:52:21;101282.06;;;15.86;71.28
49065;BME280;34877;27.062;-82.386;2023-04-29T06:02:27;101257.21;;;16.41;72.61
49065;BME280;34877;27.062;-82.386;2023-04-29T06:12:32;101239.64;;;16.32;71.71
49065;BME280;34877;27.062;-82.386;2023-04-29T06:22:37;101226.94;;;16.24;72.08
49065;BME280;34877;27.062;-82.386;2023-04-29T06:32:42;101213.82;;;15.63;75.20
49065;BME280;34877;27.062;-82.386;2023-04-29T06:42:47;101186.15;;;16.23;72.29
49065;BME280;34877;27.062;-82.386;2023-04-29T06:52:52;101161.53;;;15.51;75.50
49065;BME280;34877;27.062;-82.386;2023-04-29T07:02:57;101155.92;;;16.25;71.94
49065;BME280;34877;27.062;-82.386;2023-04-29T07:13:02;101172.85;;;16.65;73.77
49065;BME280;34877;27.062;-82.386;2023-04-29T07:23:07;101192.66;;;16.50;71.56
49065;BME280;34877;27.062;-82.386;2023-04-29T07:33:12;101159.70;;;15.72;72.02
49065;BME280;34877;27.062;-82.386;2023-04-29T07:43:17;101146.60;;;15.24;74.05
49065;BME280;34877;27.062;-82.386;2023-04-29T07:53:22;101101.30;;;16.55;71.26
49065;BME280;34877;27.062;-82.386;2023-04-29T08:03:27;101103.37;;;15.76;74.36
49065;BME280;34877;27.062;-82.386;2023-04-29T08:13:32;101109.10;;;16.29;72.80
49065;BME280;34877;27.062;-82.386;2023-04-29T08:23:36;101081.70;;;16.18;74.18
49065;BME280;34877;27.062;-82.386;2023-04-29T08:33:42;101069.35;;;16.89;75.29
49065;BME280;34877;27.062;-82.386;2023-04-29T08:43:46;100961.03;;;16.75;75.96
49065;BME280;34877;27.062;-82.386;2023-04-29T08:53:53;101012.00;;;16.83;77.06
49065;BME280;34877;27.062;-82.386;2023-04-29T09:04:07;101019.87;;;16.46;78.05
49065;BME280;34877;27.062;-82.386;2023-04-29T09:14:12;101039.20;;;16.73;78.44
49065;BME280;34877;27.062;-82.386;2023-04-29T09:24:25;101108.33;;;16.30;79.43
49065;BME280;34877;27.062;-82.386;2023-04-29T09:34:33;101167.98;;;16.58;79.06
49065;BME280;34877;27.062;-82.386;2023-04-29T09:44:41;101175.11;;;16.44;79.63
49065;BME280;34877;27.062;-82.386;2023-04-29T09:54:47;101182.63;;;16.71;80.24
49065;BME280;34877;27.062;-82.386;2023-04-29T10:04:54;101179.14;;;16.13;80.94
49065;BME280;34877;27.062;-82.386;2023-04-29T10:15:03;101188.93;;;16.55;81.54
49065;BME280;34877;27.062;-82.386;2023-04-29T10:25:14;101206.20;;;16.18;82.47
49065;BME280;34877;27.062;-82.386;2023-04-29T10:35:19;101204.23;;;16.86;83.09
49065;BME280;34877;27.062;-82.386;2023-04-29T10:45:24;101217.62;;;16.70;83.76
49065;BME280;34877;27.062;-82.386;2023-04-29T10:55:27;101243.14;;;16.34;80.58
49065;BME280;34877;27.062;-82.386;2023-04-29T11:05:34;101264.45;;;16.69;80.97
49065;BME280;34877;27.062;-82.386;2023-04-29T11:15:37;101277.21;;;16.64;82.08
49065;BME280;34877;27.062;-82.386;2023-04-29T11:25:43;101271.16;;;16.75;83.02
49065;BME280;34877;27.062;-82.386;2023-04-29T11:35:47;101270.29;;;16.46;85.13
49065;BME280;34877;27.062;-82.386;2023-04-29T11:45:52;101274.07;;;15.83;85.43
49065;BME280;34877;27.062;-82.386;2023-04-29T11:55:57;101305.37;;;16.89;85.29
49065;BME280;34877;27.062;-82.386;2023-04-29T12:06:03;101301.86;;;16.35;86.48
49065;BME280;34877;27.062;-82.386;2023-04-29T12:16:08;101292.86;;;16.49;86.16
49065;BME280;34877;27.062;-82.386;2023-04-29T12:26:11;101254.93;;;16.58;86.08
49065;BME280;34877;27.062;-82.386;2023-04-29T12:36:17;101227.28;;;16.70;89.73
49065;BME280;34877;27.062;-82.386;2023-04-29T12:46:22;101236.08;;;16.63;89.78
49065;BME280;34877;27.062;-82.386;2023-04-29T12:56:28;101226.09;;;16.51;88.66
49065;BME280;34877;27.062;-82.386;2023-04-29T13:06:32;101216.14;;;16.47;89.53
49065;BME280;34877;27.062;-82.386;2023-04-29T13:16:38;101222.46;;;16.33;90.38
49065;BME280;34877;27.062;-82.386;2023-04-29T13:26:42;101226.00;;;16.92;91.27
49065;BME280;34877;27.062;-82.386;2023-04-29T13:36:47;101223.31;;;16.45;89.98
49065;BME280;34877;27.062;-82.386;2023-04-29T13:46:53;101217.75;;;16.42;90.00
49065;BME280;34877;27.062;-82.386;2023-04-29T13:56:57;101218.24;;;16.45;90.10
49065;BME280;34877;27.062;-82.386;2023-04-29T14:07:01;101209.19;;;16.74;91.11
49065;BME280;34877;27.062;-82.386;2023-04-29T14:17:08;101210.84;;;16.98;89.87
49065;BME280;34877;27.062;-82.386;2023-04-29T14:27:12;101211.15;;;16.36;90.45
49065;BME280;34877;27.062;-82.386;2023-04-29T14:37:17;101181.92;;;16.62;90.89
49065;BME280;34877;27.062;-82.386;2023-04-29T14:47:22;101196.68;;;16.67;91.13
49065;BME280;34877;27.062;-82.386;2023-04-29T14:57:26;101205.47;;;16.68;93.02
49065;BME280;34877;27.062;-82.386;2023-04-29T15:07:32;101182.45;;;16.52;92.90
49065;BME280;34877;27.062;-82.386;2023-04-29T15:17:37;101191.45;;;17.06;91.20
49065;BME280;34877;27.062;-82.386;2023-04-29T15:27:41;101187.89;;;17.16;96.59
